createdAt,value
2018-07-22T00:00:09.599Z,61.10
2018-07-22T00:02:37.024Z,59.97
2018-07-22T00:05:04.212Z,26.00
2018-07-22T00:07:31.348Z,15.87
2018-07-22T00:09:58.493Z,34.63
2018-07-22T00:12:25.655Z,65.60
2018-07-22T00:14:52.809Z,14.63
2018-07-22T00:17:19.937Z,19.03
2018-07-22T00:19:47.054Z,16.83
2018-07-22T00:22:14.175Z,11.97
2018-07-22T00:24:41.303Z,51.97
2018-07-22T00:27:08.425Z,122.27
2018-07-22T00:29:35.549Z,185.97
2018-07-22T00:32:02.696Z,38.20
2018-07-22T00:34:29.804Z,29.90
2018-07-22T00:36:56.964Z,27.40
2018-07-22T00:39:24.132Z,270.53
2018-07-22T00:41:51.276Z,237.97
2018-07-22T00:44:18.400Z,53.63
2018-07-22T00:46:45.540Z,36.40
2018-07-22T00:49:12.656Z,26.07
2018-07-22T00:51:39.784Z,36.20
2018-07-22T00:54:06.931Z,32.50
2018-07-22T00:56:34.544Z,49.53
2018-07-22T00:59:01.661Z,39.13
2018-07-22T01:01:28.796Z,58.50
2018-07-22T01:03:55.932Z,42.23
2018-07-22T01:06:23.052Z,61.47
2018-07-22T01:08:50.180Z,49.43
2018-07-22T01:11:17.307Z,161.80
2018-07-22T01:13:44.431Z,218.67
2018-07-22T01:16:11.564Z,58.70
2018-07-22T01:18:38.681Z,34.77
2018-07-22T01:21:05.841Z,94.27
2018-07-22T01:23:32.989Z,188.33
2018-07-22T01:26:00.152Z,38.80
2018-07-22T01:28:27.283Z,54.27
2018-07-22T01:30:54.416Z,290.33
2018-07-22T01:33:21.528Z,229.67
2018-07-22T01:35:48.645Z,33.63
2018-07-22T01:38:15.771Z,79.53
2018-07-22T01:40:42.882Z,117.10
2018-07-22T01:43:09.997Z,51.60
2018-07-22T01:45:37.128Z,119.13
2018-07-22T01:48:04.257Z,62.20
2018-07-22T01:50:31.384Z,42.53
2018-07-22T01:52:58.495Z,46.27
2018-07-22T01:55:25.617Z,60.53
2018-07-22T01:57:52.747Z,81.47
2018-07-22T02:00:19.887Z,78.97
2018-07-22T02:02:47.011Z,82.67
2018-07-22T02:05:14.136Z,318.67
2018-07-22T02:07:41.254Z,82.77
2018-07-22T02:10:08.363Z,82.43
2018-07-22T02:12:35.535Z,88.60
2018-07-22T02:15:02.910Z,87.63
2018-07-22T02:17:30.022Z,166.47
2018-07-22T02:19:57.136Z,93.73
2018-07-22T02:22:24.285Z,100.83
2018-07-22T02:24:51.424Z,90.93
2018-07-22T02:27:18.603Z,50.50
2018-07-22T02:29:45.728Z,98.70
2018-07-22T02:32:12.888Z,310.20
2018-07-22T02:34:40.004Z,77.57
2018-07-22T02:37:07.151Z,117.40
2018-07-22T02:39:34.280Z,251.83
2018-07-22T02:42:01.401Z,98.33
2018-07-22T02:44:28.536Z,84.17
2018-07-22T02:46:55.657Z,120.63
2018-07-22T02:49:22.776Z,157.13
2018-07-22T02:51:49.927Z,96.57
2018-07-22T02:54:17.040Z,80.90
2018-07-22T02:56:44.158Z,602.33
2018-07-22T02:59:11.305Z,59.10
2018-07-22T03:01:38.716Z,201.57
2018-07-22T03:04:06.401Z,73.27
2018-07-22T03:06:33.836Z,278.63
2018-07-22T03:09:00.977Z,206.43
2018-07-22T03:11:28.120Z,83.50
2018-07-22T03:13:55.636Z,114.00
2018-07-22T03:16:22.780Z,245.77
2018-07-22T03:18:49.903Z,210.93
2018-07-22T03:21:17.023Z,192.13
2018-07-22T03:23:44.136Z,216.73
2018-07-22T03:26:11.240Z,120.50
2018-07-22T03:28:38.360Z,378.60
2018-07-22T03:31:05.471Z,114.10
2018-07-22T03:33:32.627Z,121.60
2018-07-22T03:35:59.764Z,654.20
2018-07-22T03:38:26.902Z,157.17
2018-07-22T03:40:54.024Z,562.47
2018-07-22T03:43:21.144Z,282.10
2018-07-22T03:45:48.267Z,760.97
2018-07-22T03:48:15.388Z,297.63
2018-07-22T03:50:42.496Z,937.97
2018-07-22T03:53:09.633Z,424.13
2018-07-22T03:55:36.776Z,142.93
2018-07-22T03:58:04.135Z,337.47
2018-07-22T04:00:31.288Z,91.90
2018-07-22T04:02:58.399Z,299.27
2018-07-22T04:05:25.527Z,910.87
2018-07-22T04:07:52.665Z,73.03
2018-07-22T04:10:19.760Z,140.57
2018-07-22T04:12:46.892Z,389.40
2018-07-22T04:15:14.072Z,520.37
2018-07-22T04:17:41.204Z,1621.93
2018-07-22T04:20:08.323Z,1562.37
2018-07-22T04:22:35.436Z,1719.47
2018-07-22T04:25:02.725Z,967.13
2018-07-22T04:27:29.900Z,1076.00
2018-07-22T04:29:57.135Z,1671.20
2018-07-22T04:32:24.253Z,1999.90
2018-07-22T04:34:51.352Z,1909.87
2018-07-22T04:37:18.470Z,1054.50
2018-07-22T04:39:45.571Z,1712.90
2018-07-22T04:42:12.696Z,1999.90
2018-07-22T04:44:39.820Z,1121.43
2018-07-22T04:47:07.012Z,1882.00
2018-07-22T04:49:34.113Z,748.60
2018-07-22T04:52:01.230Z,1682.00
2018-07-22T04:54:28.344Z,1415.40
2018-07-22T04:56:55.467Z,1700.33
2018-07-22T04:59:22.607Z,1950.50
2018-07-22T05:01:49.740Z,934.80
2018-07-22T05:04:16.856Z,898.20
2018-07-22T05:06:43.974Z,1908.90
2018-07-22T05:09:12.183Z,1403.97
2018-07-22T05:11:39.652Z,1999.90
2018-07-22T05:14:06.810Z,1999.90
2018-07-22T05:16:34.128Z,1452.50
2018-07-22T05:19:01.240Z,1999.90
2018-07-22T05:21:28.403Z,864.33
2018-07-22T05:23:55.519Z,1999.90
2018-07-22T05:26:22.699Z,1178.90
2018-07-22T05:28:49.780Z,904.37
2018-07-22T05:31:16.912Z,1999.90
2018-07-22T05:33:44.028Z,1733.13
2018-07-22T05:36:11.208Z,885.13
2018-07-22T05:38:38.269Z,1621.03
2018-07-22T05:41:05.956Z,657.73
2018-07-22T05:43:33.071Z,649.33
2018-07-22T05:46:00.184Z,1729.53
2018-07-22T05:48:27.302Z,1329.33
2018-07-22T05:50:54.431Z,1476.80
2018-07-22T05:53:21.588Z,1999.90
2018-07-22T05:55:48.719Z,287.93
2018-07-22T05:58:15.828Z,1042.00
2018-07-22T06:00:42.948Z,1999.90
2018-07-22T06:03:10.136Z,1558.77
2018-07-22T06:05:37.200Z,648.07
2018-07-22T06:08:04.861Z,1607.77
2018-07-22T06:10:31.992Z,1999.90
2018-07-22T06:12:59.106Z,1999.90
2018-07-22T06:15:26.251Z,1999.90
2018-07-22T06:17:53.379Z,837.23
2018-07-22T06:20:20.497Z,1999.90
2018-07-22T06:22:47.620Z,1175.43
2018-07-22T06:25:14.731Z,758.67
2018-07-22T06:27:41.847Z,1999.90
2018-07-22T06:30:11.396Z,1999.90
2018-07-22T06:32:38.624Z,1970.30
2018-07-22T06:35:05.829Z,1468.27
2018-07-22T06:37:32.931Z,1194.60
2018-07-22T06:40:00.060Z,1609.03
2018-07-22T06:42:27.195Z,1999.90
2018-07-22T06:44:54.316Z,1999.90
2018-07-22T06:47:21.440Z,1609.07
2018-07-22T06:49:48.572Z,382.90
2018-07-22T06:52:15.728Z,977.77
2018-07-22T06:54:42.847Z,708.17
2018-07-22T06:57:10.016Z,1999.90
2018-07-22T06:59:37.114Z,1999.90
2018-07-22T07:02:04.264Z,1627.67
2018-07-22T07:04:31.372Z,1999.90
2018-07-22T07:06:58.501Z,1802.33
2018-07-22T07:09:25.611Z,1343.60
2018-07-22T07:11:52.740Z,1319.80
2018-07-22T07:14:20.384Z,1558.93
2018-07-22T07:16:47.518Z,137.10
2018-07-22T07:19:14.636Z,783.83
2018-07-22T07:21:41.820Z,647.17
2018-07-22T07:24:08.932Z,1213.30
2018-07-22T07:26:36.072Z,174.77
2018-07-22T07:29:03.189Z,1999.90
2018-07-22T07:31:30.324Z,1999.90
2018-07-22T07:33:57.446Z,242.50
2018-07-22T07:36:24.581Z,782.20
2018-07-22T07:38:51.701Z,481.40
2018-07-22T07:41:18.825Z,1024.73
2018-07-22T07:43:46.014Z,1098.93
2018-07-22T07:46:13.128Z,1999.90
2018-07-22T07:48:40.253Z,399.00
2018-07-22T07:51:07.375Z,155.60
2018-07-22T07:53:34.506Z,212.53
2018-07-22T07:56:01.632Z,1999.90
2018-07-22T07:58:28.820Z,1418.97
2018-07-22T08:00:55.937Z,801.17
2018-07-22T08:03:23.080Z,912.43
2018-07-22T08:05:50.211Z,357.70
2018-07-22T08:08:17.344Z,118.07
2018-07-22T08:10:44.489Z,279.13
2018-07-22T08:13:11.672Z,155.30
2018-07-22T08:15:39.120Z,320.60
2018-07-22T08:18:06.253Z,95.63
2018-07-22T08:20:33.394Z,288.53
2018-07-22T08:23:00.535Z,603.27
2018-07-22T08:25:27.671Z,114.07
2018-07-22T08:27:54.777Z,253.63
2018-07-22T08:30:22.715Z,883.33
2018-07-22T08:32:49.821Z,54.97
2018-07-22T08:35:16.936Z,46.50
2018-07-22T08:37:44.068Z,600.37
2018-07-22T08:40:11.172Z,665.07
2018-07-22T08:42:38.333Z,485.53
2018-07-22T08:45:05.729Z,1364.67
2018-07-22T08:47:32.907Z,350.17
2018-07-22T08:49:59.976Z,537.13
2018-07-22T08:52:27.101Z,323.60
2018-07-22T08:54:54.240Z,212.60
2018-07-22T08:57:21.372Z,283.03
2018-07-22T08:59:48.505Z,74.17
2018-07-22T09:02:15.632Z,50.83
2018-07-22T09:04:42.755Z,207.47
2018-07-22T09:07:09.884Z,89.27
2018-07-22T09:09:37.004Z,184.07
2018-07-22T09:12:04.175Z,442.63
2018-07-22T09:14:31.300Z,19.10
2018-07-22T09:16:58.440Z,323.30
2018-07-22T09:19:25.589Z,652.17
2018-07-22T09:21:52.722Z,766.50
2018-07-22T09:24:19.853Z,230.30
2018-07-22T09:26:46.990Z,21.00
2018-07-22T09:29:14.110Z,30.63
2018-07-22T09:31:41.241Z,203.17
2018-07-22T09:34:08.376Z,381.20
2018-07-22T09:36:35.569Z,453.30
2018-07-22T09:39:04.768Z,228.03
2018-07-22T09:41:31.902Z,565.70
2018-07-22T09:43:59.024Z,23.40
2018-07-22T09:46:26.156Z,43.00
2018-07-22T09:48:53.268Z,16.83
2018-07-22T09:51:20.398Z,87.50
2018-07-22T09:53:47.586Z,260.10
2018-07-22T09:56:14.685Z,82.27
2018-07-22T09:58:41.800Z,67.97
2018-07-22T10:01:08.944Z,31.33
2018-07-22T10:03:36.076Z,22.77
2018-07-22T10:06:03.232Z,37.73
2018-07-22T10:08:30.361Z,19.40
2018-07-22T10:10:57.499Z,14.97
2018-07-22T10:13:24.644Z,168.67
2018-07-22T10:15:51.784Z,344.93
2018-07-22T10:18:18.946Z,26.17
2018-07-22T10:20:46.093Z,89.63
2018-07-22T10:23:13.252Z,34.93
2018-07-22T10:25:40.404Z,239.33
2018-07-22T10:28:07.567Z,68.60
2018-07-22T10:30:34.709Z,30.47
2018-07-22T10:33:01.844Z,48.70
2018-07-22T10:35:29.105Z,196.77
2018-07-22T10:37:56.257Z,27.30
2018-07-22T10:40:23.514Z,54.10
2018-07-22T10:42:50.669Z,63.40
2018-07-22T10:45:17.809Z,265.93
2018-07-22T10:47:44.923Z,146.23
2018-07-22T10:50:12.090Z,11.13
2018-07-22T10:52:39.227Z,51.93
2018-07-22T10:55:06.352Z,15.07
2018-07-22T10:57:33.491Z,18.60
2018-07-22T11:00:00.973Z,13.33
2018-07-22T11:02:28.275Z,17.30
2018-07-22T11:04:55.449Z,1136.03
2018-07-22T11:07:22.936Z,26.50
2018-07-22T11:09:50.460Z,686.90
2018-07-22T11:12:17.608Z,22.90
2018-07-22T11:14:44.832Z,206.10
2018-07-22T11:17:11.943Z,351.57
2018-07-22T11:19:39.101Z,140.40
2018-07-22T11:22:06.265Z,14.40
2018-07-22T11:24:33.417Z,20.57
2018-07-22T11:27:00.540Z,47.40
2018-07-22T11:29:27.641Z,236.90
2018-07-22T11:31:54.773Z,20.70
2018-07-22T11:34:21.931Z,584.70
2018-07-22T11:36:49.092Z,26.03
2018-07-22T11:39:16.212Z,179.17
2018-07-22T11:41:43.327Z,28.17
2018-07-22T11:44:10.456Z,43.27
2018-07-22T11:46:38.413Z,20.90
2018-07-22T11:49:06.480Z,29.67
2018-07-22T11:51:33.700Z,1701.63
2018-07-22T11:54:00.820Z,529.70
2018-07-22T11:56:27.936Z,25.40
2018-07-22T11:58:55.072Z,482.10
2018-07-22T12:01:22.209Z,1162.80
2018-07-22T12:03:49.337Z,143.10
2018-07-22T12:06:16.492Z,47.57
2018-07-22T12:08:43.628Z,48.10
2018-07-22T12:11:10.817Z,920.57
2018-07-22T12:13:37.983Z,1999.90
2018-07-22T12:16:05.132Z,1999.90
2018-07-22T12:18:32.288Z,1999.90
2018-07-22T12:21:00.186Z,1969.90
2018-07-22T12:23:27.477Z,1296.37
2018-07-22T12:25:54.837Z,991.83
2018-07-22T12:28:22.166Z,1237.30
2018-07-22T12:30:49.327Z,1999.90
2018-07-22T12:33:16.448Z,946.10
2018-07-22T12:35:43.575Z,90.97
2018-07-22T12:38:10.689Z,1801.03
2018-07-22T12:40:37.825Z,444.50
2018-07-22T12:43:05.000Z,147.07
2018-07-22T12:45:32.144Z,31.53
2018-07-22T12:47:59.263Z,1999.90
2018-07-22T12:50:26.392Z,1475.57
2018-07-22T12:52:53.532Z,355.00
2018-07-22T12:55:20.844Z,75.90
2018-07-22T12:57:48.000Z,597.00
2018-07-22T13:00:15.132Z,153.87
2018-07-22T13:02:42.235Z,1043.07
2018-07-22T13:05:09.364Z,311.33
2018-07-22T13:07:36.504Z,164.00
2018-07-22T13:10:04.004Z,1101.93
2018-07-22T13:12:31.149Z,55.97
2018-07-22T13:14:58.272Z,339.27
2018-07-22T13:17:25.420Z,244.57
2018-07-22T13:19:52.583Z,1999.90
2018-07-22T13:22:19.721Z,871.20
2018-07-22T13:24:46.896Z,565.70
2018-07-22T13:27:14.119Z,458.00
2018-07-22T13:29:41.174Z,1507.80
2018-07-22T13:32:08.628Z,427.73
2018-07-22T13:34:35.788Z,848.40
2018-07-22T13:37:02.944Z,1109.87
2018-07-22T13:39:30.094Z,1999.90
2018-07-22T13:41:57.208Z,1999.90
2018-07-22T13:44:24.335Z,1999.90
2018-07-22T13:46:51.486Z,1841.40
2018-07-22T13:49:18.604Z,1849.70
2018-07-22T13:51:45.752Z,1999.90
2018-07-22T13:54:12.855Z,1729.93
2018-07-22T13:56:40.028Z,1989.07
2018-07-22T13:59:07.200Z,1490.77
2018-07-22T14:01:34.309Z,1127.50
2018-07-22T14:04:01.444Z,1999.90
2018-07-22T14:06:28.560Z,1999.90
2018-07-22T14:08:55.738Z,1999.90
2018-07-22T14:11:22.868Z,1999.90
2018-07-22T14:13:50.012Z,1526.60
2018-07-22T14:16:17.160Z,1112.23
2018-07-22T14:18:44.288Z,1669.37
2018-07-22T14:21:11.454Z,1863.07
2018-07-22T14:23:38.560Z,1343.03
2018-07-22T14:26:05.676Z,469.30
2018-07-22T14:28:32.795Z,760.00
2018-07-22T14:30:59.925Z,357.87
2018-07-22T14:33:27.035Z,185.40
2018-07-22T14:35:54.160Z,693.40
2018-07-22T14:38:21.275Z,141.90
2018-07-22T14:40:48.443Z,127.33
2018-07-22T14:43:15.537Z,201.53
2018-07-22T14:45:42.653Z,338.70
2018-07-22T14:48:09.816Z,252.77
2018-07-22T14:50:37.013Z,517.60
2018-07-22T14:53:04.199Z,1264.17
2018-07-22T14:55:31.355Z,117.63
2018-07-22T14:57:58.516Z,1677.87
2018-07-22T15:00:25.731Z,500.80
2018-07-22T15:02:52.828Z,481.77
2018-07-22T15:05:19.931Z,507.70
2018-07-22T15:07:47.107Z,521.83
2018-07-22T15:10:14.245Z,1493.80
2018-07-22T15:12:41.361Z,554.73
2018-07-22T15:15:08.500Z,899.13
2018-07-22T15:17:35.647Z,485.50
2018-07-22T15:20:03.033Z,627.70
2018-07-22T15:22:30.767Z,1074.40
2018-07-22T15:24:57.911Z,1801.17
2018-07-22T15:27:25.036Z,1912.97
2018-07-22T15:29:52.149Z,1059.17
2018-07-22T15:32:19.300Z,721.47
2018-07-22T15:34:46.420Z,448.00
2018-07-22T15:37:13.548Z,1059.30
2018-07-22T15:39:40.671Z,1926.50
2018-07-22T15:42:07.875Z,799.63
2018-07-22T15:44:35.022Z,1999.90
2018-07-22T15:47:02.168Z,1999.90
2018-07-22T15:49:29.324Z,1999.90
2018-07-22T15:51:56.496Z,1999.90
2018-07-22T15:54:23.628Z,1805.00
2018-07-22T15:56:50.768Z,1999.90
2018-07-22T15:59:17.904Z,1999.90
2018-07-22T16:01:45.055Z,1999.90
2018-07-22T16:04:12.188Z,1999.90
2018-07-22T16:06:39.308Z,1999.90
2018-07-22T16:09:07.933Z,1999.90
2018-07-22T16:11:35.085Z,1999.90
2018-07-22T16:14:02.300Z,1999.90
2018-07-22T16:16:29.404Z,1999.90
2018-07-22T16:18:56.540Z,1999.90
2018-07-22T16:21:23.709Z,1999.90
2018-07-22T16:23:51.004Z,1999.90
2018-07-22T16:26:18.117Z,1999.90
2018-07-22T16:28:45.264Z,1999.90
2018-07-22T16:31:12.400Z,1999.90
2018-07-22T16:33:39.530Z,1999.90
2018-07-22T16:36:06.740Z,1999.90
2018-07-22T16:38:33.864Z,1999.90
2018-07-22T16:41:00.984Z,1999.90
2018-07-22T16:43:28.125Z,1999.90
2018-07-22T16:45:55.228Z,1999.90
2018-07-22T16:48:22.352Z,1999.90
2018-07-22T16:50:49.468Z,1999.90
2018-07-22T16:53:16.584Z,1999.90
2018-07-22T16:55:43.704Z,1984.10
2018-07-22T16:58:10.840Z,1999.90
2018-07-22T17:00:37.974Z,1999.90
2018-07-22T17:03:05.112Z,1999.90
2018-07-22T17:05:32.223Z,1999.90
2018-07-22T17:07:59.332Z,1999.90
2018-07-22T17:10:26.445Z,1999.90
2018-07-22T17:12:53.572Z,1999.90
2018-07-22T17:15:20.700Z,1999.90
2018-07-22T17:17:47.824Z,1999.90
2018-07-22T17:20:15.049Z,1999.90
2018-07-22T17:22:42.129Z,1999.90
2018-07-22T17:25:09.252Z,1999.90
2018-07-22T17:27:36.384Z,1999.90
2018-07-22T17:30:03.836Z,1999.90
2018-07-22T17:32:31.041Z,1999.90
2018-07-22T17:34:58.284Z,1999.90
2018-07-22T17:37:26.152Z,1999.90
2018-07-22T17:39:57.522Z,1999.90
2018-07-22T17:42:25.020Z,1999.90
2018-07-22T17:44:52.158Z,1999.90
2018-07-22T17:47:19.294Z,1530.23
2018-07-22T17:49:46.412Z,1999.90
2018-07-22T17:52:13.565Z,1999.90
2018-07-22T17:54:40.685Z,1999.90
2018-07-22T17:57:07.816Z,1999.90
2018-07-22T17:59:34.949Z,1999.90
2018-07-22T18:02:02.097Z,1999.90
2018-07-22T18:04:29.211Z,347.80
2018-07-22T18:06:56.341Z,1999.90
2018-07-22T18:09:23.461Z,1999.90
2018-07-22T18:11:50.579Z,1999.90
2018-07-22T18:14:17.777Z,1999.90
2018-07-22T18:16:44.833Z,1999.90
2018-07-22T18:19:11.981Z,1999.90
2018-07-22T18:21:39.112Z,1999.90
2018-07-22T18:24:06.248Z,1999.90
2018-07-22T18:26:33.433Z,1999.90
2018-07-22T18:29:00.560Z,1999.90
2018-07-22T18:31:27.704Z,1999.90
2018-07-22T18:33:54.881Z,1999.90
2018-07-22T18:36:22.020Z,1999.90
2018-07-22T18:38:49.132Z,1999.90
2018-07-22T18:41:16.273Z,1999.90
2018-07-22T18:43:43.447Z,1999.90
2018-07-22T18:46:10.580Z,1999.90
2018-07-22T18:48:37.828Z,1999.90
2018-07-22T18:51:04.963Z,1999.90
2018-07-22T18:53:32.109Z,1999.90
2018-07-22T18:55:59.267Z,1999.90
2018-07-22T18:58:26.394Z,1999.90
2018-07-22T19:00:53.521Z,1999.90
2018-07-22T19:03:20.720Z,1999.90
2018-07-22T19:05:47.855Z,1999.90
2018-07-22T19:08:15.009Z,1999.90
2018-07-22T19:10:42.133Z,1999.90
2018-07-22T19:13:09.293Z,1999.90
2018-07-22T19:15:36.429Z,1999.90
2018-07-22T19:18:03.541Z,1999.90
2018-07-22T19:20:30.692Z,1999.90
2018-07-22T19:22:57.821Z,1999.90
2018-07-22T19:25:24.985Z,1999.90
2018-07-22T19:27:52.132Z,1999.90
2018-07-22T19:30:23.138Z,1999.90
2018-07-22T19:32:50.248Z,1999.90
2018-07-22T19:35:17.387Z,1999.90
2018-07-22T19:37:44.508Z,1999.90
2018-07-22T19:40:11.671Z,1999.90
2018-07-22T19:42:38.852Z,1999.90
2018-07-22T19:45:05.970Z,1999.90
2018-07-22T19:47:33.104Z,1999.90
2018-07-22T19:50:00.225Z,1999.90
2018-07-22T19:52:27.356Z,1999.90
2018-07-22T19:54:54.501Z,1999.90
2018-07-22T19:57:21.636Z,1970.57
2018-07-22T19:59:48.788Z,1999.90
2018-07-22T20:02:15.982Z,1999.90
2018-07-22T20:04:43.128Z,1999.90
2018-07-22T20:07:10.265Z,1293.50
2018-07-22T20:09:37.396Z,993.17
2018-07-22T20:12:04.589Z,1151.47
2018-07-22T20:14:31.747Z,725.00
2018-07-22T20:16:58.886Z,769.87
2018-07-22T20:19:26.017Z,399.23
2018-07-22T20:21:53.180Z,261.70
2018-07-22T20:24:20.395Z,224.90
2018-07-22T20:26:47.463Z,568.23
2018-07-22T20:29:14.576Z,545.47
2018-07-22T20:31:41.730Z,467.50
2018-07-22T20:34:08.884Z,734.20
2018-07-22T20:36:36.052Z,284.00
2018-07-22T20:39:07.034Z,298.63
2018-07-22T20:41:34.140Z,200.40
2018-07-22T20:44:01.319Z,188.60
2018-07-22T20:46:28.444Z,168.47
2018-07-22T20:48:55.595Z,277.20
2018-07-22T20:51:22.744Z,169.60
2018-07-22T20:53:49.899Z,128.07
2018-07-22T20:56:17.042Z,77.00
2018-07-22T20:58:44.189Z,70.07
2018-07-22T21:01:11.321Z,86.77
2018-07-22T21:03:38.435Z,72.13
2018-07-22T21:06:05.580Z,67.77
2018-07-22T21:08:32.716Z,57.87
2018-07-22T21:10:59.836Z,42.20
2018-07-22T21:13:27.493Z,71.63
2018-07-22T21:15:54.946Z,37.00
2018-07-22T21:18:22.089Z,36.73
2018-07-22T21:20:49.224Z,35.73
2018-07-22T21:23:16.354Z,30.90
2018-07-22T21:25:43.560Z,25.40
2018-07-22T21:28:10.685Z,23.33
2018-07-22T21:30:37.823Z,15.60
2018-07-22T21:33:04.952Z,24.07
2018-07-22T21:35:32.073Z,19.03
2018-07-22T21:37:59.235Z,13.13
2018-07-22T21:40:26.500Z,19.67
2018-07-22T21:42:53.618Z,15.77
2018-07-22T21:45:20.776Z,10.57
2018-07-22T21:47:47.921Z,9.47
2018-07-22T21:50:15.091Z,8.77
2018-07-22T21:52:42.215Z,8.73
2018-07-22T21:55:09.360Z,9.87
2018-07-22T21:57:36.816Z,8.93
2018-07-22T22:00:17.436Z,9.03
2018-07-22T22:02:44.560Z,9.10
2018-07-22T22:05:11.712Z,8.70
2018-07-22T22:07:38.817Z,9.10
2018-07-22T22:10:05.977Z,8.80
2018-07-22T22:12:33.104Z,8.37
2018-07-22T22:15:00.225Z,8.97
2018-07-22T22:17:27.359Z,8.53
2018-07-22T22:19:54.560Z,8.60
2018-07-22T22:22:21.701Z,8.83
2018-07-22T22:24:48.877Z,9.07
2018-07-22T22:27:15.976Z,9.70
2018-07-22T22:29:43.149Z,8.87
2018-07-22T22:32:10.268Z,8.47
2018-07-22T22:34:37.372Z,8.53
2018-07-22T22:37:04.482Z,11.30
2018-07-22T22:39:31.649Z,8.63
2018-07-22T22:41:58.787Z,8.97
2018-07-22T22:44:25.888Z,8.37
2018-07-22T22:46:53.016Z,10.00
2018-07-22T22:49:20.140Z,9.33
2018-07-22T22:51:47.283Z,8.73
2018-07-22T22:54:14.428Z,9.57
2018-07-22T22:56:41.558Z,9.47
2018-07-22T22:59:16.163Z,9.20
2018-07-22T23:01:43.356Z,9.50
2018-07-22T23:04:10.471Z,9.40
2018-07-22T23:06:37.604Z,9.43
2018-07-22T23:09:07.564Z,9.20
2018-07-22T23:11:34.950Z,10.73
2018-07-22T23:14:02.415Z,10.73
2018-07-22T23:16:29.547Z,10.27
2018-07-22T23:18:56.659Z,9.93
2018-07-22T23:21:23.792Z,9.90
2018-07-22T23:23:50.948Z,9.97
2018-07-22T23:26:18.080Z,9.37
2018-07-22T23:28:45.196Z,9.00
2018-07-22T23:31:12.303Z,9.43
2018-07-22T23:33:39.424Z,9.90
2018-07-22T23:36:06.549Z,9.20
2018-07-22T23:38:33.668Z,10.73
2018-07-22T23:41:00.800Z,10.00
2018-07-22T23:43:27.919Z,10.03
2018-07-22T23:45:55.041Z,11.13
2018-07-22T23:48:22.159Z,9.87
2018-07-22T23:50:49.277Z,9.93
2018-07-22T23:53:16.392Z,11.37
2018-07-22T23:55:43.499Z,11.67
2018-07-22T23:58:10.628Z,11.30
